createdAt,value
2022-09-22T00:01:35.089Z,22.66
2022-09-22T00:04:08.210Z,22.65
2022-09-22T00:06:41.312Z,22.64
2022-09-22T00:09:14.245Z,22.63
2022-09-22T00:11:47.267Z,22.62
2022-09-22T00:14:20.264Z,22.61
2022-09-22T00:16:53.287Z,22.60
2022-09-22T00:19:26.321Z,22.59
2022-09-22T00:21:59.296Z,22.59
2022-09-22T00:24:32.309Z,22.58
2022-09-22T00:27:05.196Z,22.57
2022-09-22T00:29:38.275Z,22.56
2022-09-22T00:32:11.238Z,22.55
2022-09-22T00:34:44.303Z,22.54
2022-09-22T00:37:17.329Z,22.53
2022-09-22T00:39:50.325Z,22.52
2022-09-22T00:42:23.259Z,22.51
2022-09-22T00:44:56.307Z,22.51
2022-09-22T00:47:29.301Z,22.50
2022-09-22T00:50:02.264Z,22.49
2022-09-22T00:52:35.355Z,22.49
2022-09-22T00:55:08.348Z,22.48
2022-09-22T00:57:41.280Z,22.47
2022-09-22T01:00:14.344Z,22.46
2022-09-22T01:02:47.279Z,22.45
2022-09-22T01:05:20.378Z,22.44
2022-09-22T01:07:52.999Z,22.44
2022-09-22T01:10:26.358Z,22.43
2022-09-22T01:12:59.282Z,22.42
2022-09-22T01:15:32.357Z,22.42
2022-09-22T01:18:05.313Z,22.41
2022-09-22T01:20:38.333Z,22.40
2022-09-22T01:23:11.379Z,22.40
2022-09-22T01:25:44.347Z,22.39
2022-09-22T01:28:17.377Z,22.38
2022-09-22T01:30:50.303Z,22.37
2022-09-22T01:33:23.359Z,22.37
2022-09-22T01:35:56.554Z,22.36
2022-09-22T01:38:30.368Z,22.35
2022-09-22T01:41:03.432Z,22.34
2022-09-22T01:43:36.310Z,22.33
2022-09-22T01:46:09.381Z,22.33
2022-09-22T01:48:42.410Z,22.32
2022-09-22T01:51:15.423Z,22.31
2022-09-22T01:53:48.391Z,22.30
2022-09-22T01:56:21.429Z,22.30
2022-09-22T01:58:54.467Z,22.29
2022-09-22T02:01:27.567Z,22.28
2022-09-22T02:04:00.379Z,22.27
2022-09-22T02:06:33.336Z,22.27
2022-09-22T02:09:06.530Z,22.26
2022-09-22T02:11:39.553Z,22.25
2022-09-22T02:14:12.377Z,22.24
2022-09-22T02:16:45.433Z,22.23
2022-09-22T02:19:18.389Z,22.23
2022-09-22T02:21:51.462Z,22.22
2022-09-22T02:24:24.461Z,22.21
2022-09-22T02:26:57.124Z,22.20
2022-09-22T02:29:32.399Z,22.20
2022-09-22T02:32:19.486Z,22.19
2022-09-22T02:34:52.407Z,22.18
2022-09-22T02:37:25.481Z,22.17
2022-09-22T02:39:58.481Z,22.17
2022-09-22T02:42:31.540Z,22.16
2022-09-22T02:45:04.500Z,22.16
2022-09-22T02:47:37.551Z,22.15
2022-09-22T02:50:10.470Z,22.14
2022-09-22T02:52:43.499Z,22.13
2022-09-22T02:55:16.470Z,22.12
2022-09-22T02:57:49.587Z,22.12
2022-09-22T03:00:22.526Z,22.11
2022-09-22T03:02:55.486Z,22.10
2022-09-22T03:05:28.497Z,22.09
2022-09-22T03:08:01.536Z,22.09
2022-09-22T03:10:34.296Z,22.08
2022-09-22T03:13:16.430Z,22.08
2022-09-22T03:15:40.604Z,22.07
2022-09-22T03:18:13.524Z,22.07
2022-09-22T03:20:46.308Z,22.06
2022-09-22T03:23:19.578Z,22.05
2022-09-22T03:25:52.539Z,22.04
2022-09-22T03:28:25.601Z,22.04
2022-09-22T03:30:58.635Z,22.03
2022-09-22T03:33:31.478Z,22.02
2022-09-22T03:36:04.544Z,22.02
2022-09-22T03:38:37.570Z,22.01
2022-09-22T03:41:10.475Z,22.00
2022-09-22T03:43:44.653Z,22.00
2022-09-22T03:46:20.552Z,21.99
2022-09-22T03:48:53.213Z,21.98
2022-09-22T03:51:26.632Z,21.98
2022-09-22T03:53:59.672Z,21.97
2022-09-22T03:56:32.609Z,21.96
2022-09-22T03:59:05.615Z,21.95
2022-09-22T04:01:38.588Z,21.95
2022-09-22T04:04:11.592Z,21.94
2022-09-22T04:06:44.573Z,21.93
2022-09-22T04:09:17.540Z,21.93
2022-09-22T04:11:50.568Z,21.92
2022-09-22T04:14:23.700Z,21.91
2022-09-22T04:16:56.717Z,21.91
2022-09-22T04:19:29.588Z,21.90
2022-09-22T04:22:02.547Z,21.89
2022-09-22T04:24:35.634Z,21.88
2022-09-22T04:27:19.458Z,21.88
2022-09-22T04:29:41.716Z,21.87
2022-09-22T04:32:14.505Z,21.86
2022-09-22T04:34:47.570Z,21.85
2022-09-22T04:37:20.564Z,21.85
2022-09-22T04:39:53.696Z,21.84
2022-09-22T04:42:26.644Z,21.83
2022-09-22T04:44:59.680Z,21.83
2022-09-22T04:47:32.661Z,21.82
2022-09-22T04:50:05.648Z,21.82
2022-09-22T04:52:38.743Z,21.81
2022-09-22T04:55:15.550Z,21.80
2022-09-22T04:57:48.736Z,21.79
2022-09-22T05:00:21.722Z,21.79
2022-09-22T05:02:54.834Z,21.78
2022-09-22T05:05:27.696Z,21.78
2022-09-22T05:08:00.709Z,21.78
2022-09-22T05:10:33.753Z,21.78
2022-09-22T05:13:06.606Z,21.77
2022-09-22T05:15:39.712Z,21.77
2022-09-22T05:18:12.645Z,21.77
2022-09-22T05:20:45.766Z,21.76
2022-09-22T05:23:18.696Z,21.76
2022-09-22T05:25:51.735Z,21.76
2022-09-22T05:28:24.621Z,21.76
2022-09-22T05:30:57.732Z,21.75
2022-09-22T05:33:30.393Z,21.75
2022-09-22T05:36:03.650Z,21.74
2022-09-22T05:38:36.705Z,21.74
2022-09-22T05:41:09.778Z,21.73
2022-09-22T05:43:42.750Z,21.72
2022-09-22T05:46:15.729Z,21.72
2022-09-22T05:48:48.669Z,21.71
2022-09-22T05:51:21.755Z,21.71
2022-09-22T05:53:54.730Z,21.70
2022-09-22T05:56:27.551Z,21.70
2022-09-22T05:59:00.781Z,21.70
2022-09-22T06:01:33.494Z,21.70
2022-09-22T06:04:06.729Z,21.69
2022-09-22T06:06:39.789Z,21.69
2022-09-22T06:09:12.766Z,21.69
2022-09-22T06:11:45.772Z,21.69
2022-09-22T06:14:18.897Z,21.69
2022-09-22T06:16:52.548Z,21.68
2022-09-22T06:19:25.824Z,21.68
2022-09-22T06:21:58.635Z,21.68
2022-09-22T06:24:31.549Z,21.68
2022-09-22T06:27:04.585Z,21.68
2022-09-22T06:29:37.545Z,21.68
2022-09-22T06:32:10.511Z,21.68
2022-09-22T06:34:43.731Z,21.67
2022-09-22T06:37:16.751Z,21.67
2022-09-22T06:39:49.867Z,21.67
2022-09-22T06:42:22.801Z,21.67
2022-09-22T06:44:55.844Z,21.67
2022-09-22T06:47:28.655Z,21.67
2022-09-22T06:50:01.768Z,21.68
2022-09-22T06:52:36.960Z,21.69
2022-09-22T06:55:07.579Z,21.69
2022-09-22T06:57:40.526Z,21.70
2022-09-22T07:00:13.517Z,21.71
2022-09-22T07:02:46.546Z,21.72
2022-09-22T07:05:19.565Z,21.73
2022-09-22T07:07:52.653Z,21.74
2022-09-22T07:10:25.667Z,21.75
2022-09-22T07:12:58.936Z,21.77
2022-09-22T07:15:31.672Z,21.78
2022-09-22T07:18:04.682Z,21.79
2022-09-22T07:20:37.715Z,21.81
2022-09-22T07:23:10.553Z,21.82
2022-09-22T07:25:43.881Z,21.83
2022-09-22T07:28:16.568Z,21.84
2022-09-22T07:30:49.704Z,21.85
2022-09-22T07:33:22.665Z,21.87
2022-09-22T07:35:55.772Z,21.88
2022-09-22T07:38:42.486Z,21.89
2022-09-22T07:41:15.574Z,21.90
2022-09-22T07:43:48.579Z,21.91
2022-09-22T07:46:22.004Z,21.92
2022-09-22T07:48:54.749Z,21.93
2022-09-22T07:51:27.953Z,21.94
2022-09-22T07:54:00.849Z,21.95
2022-09-22T07:56:39.819Z,21.96
2022-09-22T07:59:15.765Z,21.97
2022-09-22T08:01:48.900Z,21.98
2022-09-22T08:04:22.017Z,21.98
2022-09-22T08:06:54.896Z,21.99
2022-09-22T08:09:27.691Z,22.00
2022-09-22T08:12:00.967Z,22.01
2022-09-22T08:14:33.645Z,22.01
2022-09-22T08:17:06.721Z,22.02
2022-09-22T08:19:39.635Z,22.03
2022-09-22T08:22:12.619Z,22.03
2022-09-22T08:24:59.949Z,22.04
2022-09-22T08:27:32.916Z,22.05
2022-09-22T08:30:05.664Z,22.06
2022-09-22T08:32:38.640Z,22.06
2022-09-22T08:35:11.658Z,22.07
2022-09-22T08:37:44.666Z,22.08
2022-09-22T08:40:17.750Z,22.09
2022-09-22T08:42:50.772Z,22.09
2022-09-22T08:45:27.026Z,22.10
2022-09-22T08:47:57.037Z,22.11
2022-09-22T08:50:29.896Z,22.11
2022-09-22T08:53:02.779Z,22.12
2022-09-22T08:55:36.045Z,22.13
2022-09-22T08:58:08.677Z,22.13
2022-09-22T09:00:42.887Z,22.14
2022-09-22T09:03:15.103Z,22.15
2022-09-22T09:05:47.698Z,22.16
2022-09-22T09:08:20.894Z,22.16
2022-09-22T09:10:53.745Z,22.17
2022-09-22T09:13:27.017Z,22.18
2022-09-22T09:16:00.052Z,22.19
2022-09-22T09:18:32.860Z,22.19
2022-09-22T09:21:05.862Z,22.20
2022-09-22T09:26:12.048Z,22.22
2022-09-22T09:28:44.738Z,22.22
2022-09-22T09:31:17.798Z,22.23
2022-09-22T09:33:50.801Z,22.23
2022-09-22T09:36:23.782Z,22.24
2022-09-22T09:38:56.889Z,22.25
2022-09-22T09:41:30.080Z,22.25
2022-09-22T09:44:02.866Z,22.26
2022-09-22T09:46:35.846Z,22.26
2022-09-22T09:49:08.758Z,22.27
2022-09-22T09:51:41.776Z,22.27
2022-09-22T09:54:17.382Z,22.28
2022-09-22T09:56:47.889Z,22.28
2022-09-22T09:59:20.819Z,22.29
2022-09-22T10:01:53.888Z,22.30
2022-09-22T10:04:26.867Z,22.30
2022-09-22T10:07:01.451Z,22.31
2022-09-22T10:09:32.917Z,22.32
2022-09-22T10:12:05.971Z,22.32
2022-09-22T10:14:38.794Z,22.33
2022-09-22T10:17:11.791Z,22.33
2022-09-22T10:19:44.804Z,22.34
2022-09-22T10:22:19.366Z,22.35
2022-09-22T10:24:52.878Z,22.35
2022-09-22T10:27:25.899Z,22.36
2022-09-22T10:29:58.876Z,22.38
2022-09-22T10:32:31.892Z,22.39
2022-09-22T10:35:05.089Z,22.40
2022-09-22T10:37:41.083Z,22.40
2022-09-22T10:40:14.055Z,22.42
2022-09-22T10:42:47.118Z,22.42
2022-09-22T10:45:20.246Z,22.43
2022-09-22T10:47:52.911Z,22.44
2022-09-22T10:50:26.108Z,22.45
2022-09-22T10:52:59.053Z,22.46
2022-09-22T10:55:32.093Z,22.47
2022-09-22T10:58:04.945Z,22.48
2022-09-22T11:00:39.268Z,22.49
2022-09-22T11:03:10.874Z,22.50
2022-09-22T11:05:43.873Z,22.51
2022-09-22T11:08:16.898Z,22.52
2022-09-22T11:10:50.012Z,22.53
2022-09-22T11:13:22.990Z,22.54
2022-09-22T11:15:56.033Z,22.56
2022-09-22T11:18:29.046Z,22.57
2022-09-22T11:21:02.268Z,22.58
2022-09-22T11:23:35.118Z,22.59
2022-09-22T11:26:07.880Z,22.60
2022-09-22T11:28:40.886Z,22.61
2022-09-22T11:31:13.923Z,22.62
2022-09-22T11:33:46.940Z,22.63
2022-09-22T11:36:19.897Z,22.64
2022-09-22T11:38:53.314Z,22.65
2022-09-22T11:41:32.118Z,22.66
2022-09-22T11:44:04.917Z,22.67
2022-09-22T11:46:38.085Z,22.69
2022-09-22T11:49:10.911Z,22.69
2022-09-22T11:51:43.933Z,22.70
2022-09-22T11:54:17.012Z,22.71
2022-09-22T11:56:50.029Z,22.72
2022-09-22T11:59:23.039Z,22.73
2022-09-22T12:01:55.977Z,22.73
2022-09-22T12:04:29.355Z,22.74
2022-09-22T12:07:02.067Z,22.75
2022-09-22T12:09:36.680Z,22.76
2022-09-22T12:12:08.000Z,22.77
2022-09-22T12:14:41.007Z,22.78
2022-09-22T12:17:13.976Z,22.79
2022-09-22T12:22:20.045Z,22.83
2022-09-22T12:24:53.150Z,22.84
2022-09-22T12:27:26.024Z,22.86
2022-09-22T12:29:59.239Z,22.87
2022-09-22T12:32:32.111Z,22.89
2022-09-22T12:35:05.029Z,22.91
2022-09-22T12:37:38.132Z,22.93
2022-09-22T12:40:11.118Z,22.94
2022-09-22T12:42:44.025Z,22.96
2022-09-22T12:45:17.017Z,22.98
2022-09-22T12:47:50.076Z,23.00
2022-09-22T12:50:23.167Z,23.02
2022-09-22T12:52:56.047Z,23.04
2022-09-22T12:55:29.067Z,23.07
2022-09-22T12:58:02.444Z,23.08
2022-09-22T13:00:35.189Z,23.08
2022-09-22T13:03:08.099Z,23.09
2022-09-22T13:05:45.730Z,23.09
2022-09-22T13:08:14.236Z,23.09
2022-09-22T13:10:47.067Z,23.10
2022-09-22T13:13:20.099Z,23.10
2022-09-22T13:15:53.123Z,23.11
2022-09-22T13:18:26.119Z,23.13
2022-09-22T13:20:59.356Z,23.15
2022-09-22T13:23:32.138Z,23.16
2022-09-22T13:26:05.450Z,23.17
2022-09-22T13:28:38.116Z,23.18
2022-09-22T13:31:11.172Z,23.19
2022-09-22T13:33:44.101Z,23.21
2022-09-22T13:36:17.105Z,23.23
2022-09-22T13:38:53.163Z,23.24
2022-09-22T13:41:26.298Z,23.24
2022-09-22T13:43:59.216Z,23.26
2022-09-22T13:46:32.145Z,23.27
2022-09-22T13:49:05.302Z,23.28
2022-09-22T13:51:38.109Z,23.28
2022-09-22T13:54:11.108Z,23.30
2022-09-22T13:56:44.121Z,23.31
2022-09-22T13:59:17.267Z,23.32
2022-09-22T14:01:50.493Z,23.32
2022-09-22T14:04:23.200Z,23.34
2022-09-22T14:07:10.045Z,23.36
2022-09-22T14:09:43.154Z,23.38
2022-09-22T14:12:16.226Z,23.41
2022-09-22T14:14:49.477Z,23.45
2022-09-22T14:17:22.221Z,23.48
2022-09-22T14:19:55.207Z,23.52
2022-09-22T14:22:28.326Z,23.55
2022-09-22T14:25:01.173Z,23.57
2022-09-22T14:27:34.537Z,23.59
2022-09-22T14:30:07.447Z,23.61
2022-09-22T14:32:40.485Z,23.63
2022-09-22T14:35:13.442Z,23.65
2022-09-22T14:37:46.409Z,23.66
2022-09-22T14:40:19.545Z,23.68
2022-09-22T14:42:52.291Z,23.70
2022-09-22T14:45:25.676Z,23.72
2022-09-22T14:47:59.542Z,23.73
2022-09-22T14:50:32.528Z,23.75
2022-09-22T14:53:05.193Z,23.77
2022-09-22T14:55:38.316Z,23.79
2022-09-22T14:58:11.280Z,23.81
2022-09-22T15:00:44.231Z,23.82
2022-09-22T15:03:17.193Z,23.84
2022-09-22T15:05:50.223Z,23.86
2022-09-22T15:08:23.161Z,23.87
2022-09-22T15:10:56.132Z,23.89
2022-09-22T15:13:29.102Z,23.91
2022-09-22T15:16:06.230Z,23.93
2022-09-22T15:18:39.015Z,23.94
2022-09-22T15:21:12.376Z,23.95
2022-09-22T15:23:45.052Z,23.97
2022-09-22T15:26:21.684Z,23.99
2022-09-22T15:28:51.213Z,24.00
2022-09-22T15:31:24.330Z,24.02
2022-09-22T15:33:57.175Z,24.03
2022-09-22T15:36:30.276Z,24.05
2022-09-22T15:39:03.077Z,24.06
2022-09-22T15:41:36.151Z,24.07
2022-09-22T15:44:09.551Z,24.07
2022-09-22T15:46:42.573Z,24.08
2022-09-22T15:49:15.276Z,24.08
2022-09-22T15:51:48.295Z,24.09
2022-09-22T15:54:21.686Z,24.09
2022-09-22T15:56:54.664Z,24.10
2022-09-22T15:59:27.487Z,24.10
2022-09-22T16:02:00.735Z,24.11
2022-09-22T16:04:33.288Z,24.12
2022-09-22T16:07:06.337Z,24.13
2022-09-22T16:09:39.512Z,24.15
2022-09-22T16:12:12.624Z,24.16
2022-09-22T16:14:45.374Z,24.17
2022-09-22T16:17:18.315Z,24.19
2022-09-22T16:19:51.589Z,24.20
2022-09-22T16:22:24.434Z,24.21
2022-09-22T16:24:57.690Z,24.23
2022-09-22T16:27:30.632Z,24.24
2022-09-22T16:30:03.748Z,24.25
2022-09-22T16:32:36.724Z,24.26
2022-09-22T16:35:09.619Z,24.27
2022-09-22T16:37:42.713Z,24.28
2022-09-22T16:40:15.731Z,24.28
2022-09-22T16:42:48.650Z,24.29
2022-09-22T16:45:21.743Z,24.29
2022-09-22T16:47:54.769Z,24.30
2022-09-22T16:50:27.673Z,24.31
2022-09-22T16:53:00.409Z,24.31
2022-09-22T16:55:37.199Z,24.30
2022-09-22T16:58:06.422Z,24.29
2022-09-22T17:00:39.520Z,24.28
2022-09-22T17:03:12.392Z,24.27
2022-09-22T17:05:45.584Z,24.25
2022-09-22T17:08:18.643Z,24.24
2022-09-22T17:10:51.494Z,24.23
2022-09-22T17:13:24.756Z,24.21
2022-09-22T17:15:57.472Z,24.20
2022-09-22T17:18:30.450Z,24.18
2022-09-22T17:21:03.496Z,24.17
2022-09-22T17:23:36.486Z,24.16
2022-09-22T17:26:09.492Z,24.15
2022-09-22T17:28:42.412Z,24.13
2022-09-22T17:31:15.656Z,24.12
2022-09-22T17:33:52.153Z,24.11
2022-09-22T17:36:21.458Z,24.10
2022-09-22T17:38:54.496Z,24.09
2022-09-22T17:41:31.255Z,24.08
2022-09-22T17:44:04.463Z,24.06
2022-09-22T17:46:37.688Z,24.05
2022-09-22T17:49:11.787Z,24.04
2022-09-22T17:51:45.542Z,24.03
2022-09-22T17:54:18.531Z,24.02
2022-09-22T17:56:51.665Z,24.02
2022-09-22T17:59:24.533Z,24.01
2022-09-22T18:01:57.875Z,24.00
2022-09-22T18:04:30.643Z,23.99
2022-09-22T18:07:03.531Z,23.99
2022-09-22T18:09:36.792Z,23.98
2022-09-22T18:12:09.853Z,23.97
2022-09-22T18:14:42.887Z,23.96
2022-09-22T18:17:15.959Z,23.95
2022-09-22T18:19:49.870Z,23.95
2022-09-22T18:22:22.873Z,23.94
2022-09-22T18:24:55.776Z,23.93
2022-09-22T18:27:28.793Z,23.93
2022-09-22T18:30:01.770Z,23.92
2022-09-22T18:32:34.655Z,23.92
2022-09-22T18:35:07.720Z,23.91
2022-09-22T18:37:40.734Z,23.91
2022-09-22T18:40:13.716Z,23.90
2022-09-22T18:42:47.679Z,23.90
2022-09-22T18:45:20.679Z,23.89
2022-09-22T18:47:54.693Z,23.88
2022-09-22T18:50:27.639Z,23.88
2022-09-22T18:53:00.625Z,23.88
2022-09-22T18:55:33.674Z,23.88
2022-09-22T18:58:06.631Z,23.87
2022-09-22T19:00:39.795Z,23.87
2022-09-22T19:03:26.600Z,23.87
2022-09-22T19:05:59.886Z,23.87
2022-09-22T19:08:32.702Z,23.87
2022-09-22T19:11:05.953Z,23.87
2022-09-22T19:13:38.925Z,23.86
2022-09-22T19:16:11.891Z,23.86
2022-09-22T19:18:44.889Z,23.86
2022-09-22T19:21:17.580Z,23.86
2022-09-22T19:23:50.798Z,23.85
2022-09-22T19:26:23.575Z,23.85
2022-09-22T19:28:56.591Z,23.84
2022-09-22T19:31:29.781Z,23.84
2022-09-22T19:34:02.684Z,23.83
2022-09-22T19:36:35.615Z,23.83
2022-09-22T19:39:08.730Z,23.83
2022-09-22T19:41:41.787Z,23.82
2022-09-22T19:44:14.620Z,23.82
2022-09-22T19:46:47.635Z,23.82
2022-09-22T19:49:20.647Z,23.81
2022-09-22T19:51:53.692Z,23.81
2022-09-22T19:54:26.819Z,23.80
2022-09-22T19:56:59.599Z,23.80
2022-09-22T19:59:32.631Z,23.79
2022-09-22T20:02:05.940Z,23.79
2022-09-22T20:04:39.156Z,23.78
2022-09-22T20:07:11.639Z,23.78
2022-09-22T20:09:44.662Z,23.78
2022-09-22T20:12:17.818Z,23.78
2022-09-22T20:14:50.699Z,23.77
2022-09-22T20:17:23.670Z,23.77
2022-09-22T20:19:56.714Z,23.77
2022-09-22T20:22:29.969Z,23.77
2022-09-22T20:25:02.977Z,23.77
2022-09-22T20:27:35.951Z,23.77
2022-09-22T20:30:09.042Z,23.77
2022-09-22T20:32:42.067Z,23.76
2022-09-22T20:35:14.966Z,23.76
2022-09-22T20:37:48.117Z,23.76
2022-09-22T20:40:21.860Z,23.75
2022-09-22T20:42:54.814Z,23.73
2022-09-22T20:45:27.807Z,23.71
2022-09-22T20:48:14.789Z,23.70
2022-09-22T20:50:47.773Z,23.68
2022-09-22T20:53:20.728Z,23.67
2022-09-22T20:55:53.814Z,23.65
2022-09-22T20:58:26.797Z,23.63
2022-09-22T21:01:00.088Z,23.62
2022-09-22T21:03:33.111Z,23.61
2022-09-22T21:06:06.054Z,23.59
2022-09-22T21:08:39.117Z,23.57
2022-09-22T21:11:12.004Z,23.56
2022-09-22T21:13:45.131Z,23.54
2022-09-22T21:16:18.069Z,23.52
2022-09-22T21:18:54.076Z,23.50
2022-09-22T21:21:27.131Z,23.48
2022-09-22T21:24:00.045Z,23.47
2022-09-22T21:26:33.249Z,23.45
2022-09-22T21:29:06.021Z,23.44
2022-09-22T21:31:39.106Z,23.42
2022-09-22T21:34:12.041Z,23.41
2022-09-22T21:36:45.111Z,23.39
2022-09-22T21:39:18.165Z,23.37
2022-09-22T21:41:51.114Z,23.36
2022-09-22T21:44:24.134Z,23.34
2022-09-22T21:46:57.044Z,23.33
2022-09-22T21:49:30.179Z,23.31
2022-09-22T21:52:03.049Z,23.30
2022-09-22T21:54:36.153Z,23.28
2022-09-22T21:57:09.111Z,23.27
2022-09-22T21:59:42.116Z,23.26
2022-09-22T22:02:15.076Z,23.24
2022-09-22T22:04:48.114Z,23.23
2022-09-22T22:07:21.184Z,23.22
2022-09-22T22:09:54.148Z,23.20
2022-09-22T22:12:26.957Z,23.19
2022-09-22T22:15:00.106Z,23.18
2022-09-22T22:17:33.150Z,23.16
2022-09-22T22:20:06.129Z,23.15
2022-09-22T22:22:39.200Z,23.14
2022-09-22T22:25:12.126Z,23.12
2022-09-22T22:27:45.224Z,23.11
2022-09-22T22:30:18.120Z,23.10
2022-09-22T22:32:51.257Z,23.09
2022-09-22T22:35:30.289Z,23.08
2022-09-22T22:38:04.214Z,23.06
2022-09-22T22:40:36.988Z,23.05
2022-09-22T22:43:10.206Z,23.03
2022-09-22T22:45:43.183Z,23.02
2022-09-22T22:48:16.132Z,23.01
2022-09-22T22:50:49.227Z,23.00
2022-09-22T22:53:22.065Z,22.99
2022-09-22T22:55:55.275Z,22.98
2022-09-22T22:58:28.267Z,22.96
2022-09-22T23:01:01.348Z,22.95
2022-09-22T23:03:34.216Z,22.94
2022-09-22T23:06:07.274Z,22.93
2022-09-22T23:08:40.321Z,22.92
2022-09-22T23:11:13.218Z,22.91
2022-09-22T23:13:46.200Z,22.90
2022-09-22T23:16:19.234Z,22.88
2022-09-22T23:18:52.246Z,22.87
2022-09-22T23:21:25.236Z,22.86
2022-09-22T23:23:58.269Z,22.85
2022-09-22T23:26:35.053Z,22.83
2022-09-22T23:29:08.279Z,22.82
2022-09-22T23:31:41.319Z,22.81
2022-09-22T23:34:14.241Z,22.80
2022-09-22T23:36:47.279Z,22.78
2022-09-22T23:39:20.361Z,22.77
2022-09-22T23:41:53.225Z,22.76
2022-09-22T23:44:26.353Z,22.75
2022-09-22T23:46:59.272Z,22.74
2022-09-22T23:49:32.350Z,22.73
2022-09-22T23:52:19.271Z,22.71
2022-09-22T23:54:52.346Z,22.70
2022-09-22T23:57:25.267Z,22.69
2022-09-22T23:59:58.296Z,22.68
